Time;durP1;ratioP1;P1;durP2;ratioP2;P2;SDS_P1;SDS_P2;PMS_P1;PMS_P2;Temp;Humidity;BMP_temperature;BMP_pressure;BME280_temperature;BME280_humidity;BME280_pressure;Samples;Min_cycle;Max_cycle;Signal;HPM_P1;HPM_P2
2023/10/26 00:45:06;;;;;;;;;;;19.90;82.10;;;;;;6310768;22;42763;-80
2023/10/26 00:47:31;;;;;;;;;;;19.90;83.90;;;;;;6308891;22;43008;-81
2023/10/26 00:49:58;;;;;;;;;;;19.80;84.20;;;;;;6309028;22;43428;-80
2023/10/26 00:52:23;;;;;;;;;;;20.00;84.40;;;;;;6309405;22;42870;-81
2023/10/26 00:54:50;;;;;;;;;;;20.00;84.30;;;;;;6310122;22;43454;-82
2023/10/26 00:57:17;;;;;;;;;;;19.60;84.30;;;;;;6309544;22;42748;-82
2023/10/26 00:59:44;;;;;;;;;;;19.90;84.30;;;;;;6308863;22;43380;-82
2023/10/26 01:02:09;;;;;;;;;;;19.90;84.20;;;;;;6308564;22;42943;-78
2023/10/26 01:04:35;;;;;;;;;;;19.80;84.30;;;;;;6310205;22;43406;-82
2023/10/26 01:07:00;;;;;;;;;;;19.90;84.20;;;;;;6309559;22;43323;-82
2023/10/26 01:09:26;;;;;;;;;;;19.90;84.20;;;;;;6310213;22;43261;-82
2023/10/26 01:11:51;;;;;;;;;;;20.10;84.40;;;;;;6309731;22;42706;-81
2023/10/26 01:14:17;;;;;;;;;;;20.00;83.80;;;;;;6309870;22;42854;-81
2023/10/26 01:16:42;;;;;;;;;;;19.80;84.30;;;;;;6310395;22;42761;-81
2023/10/26 01:19:09;;;;;;;;;;;20.00;84.30;;;;;;6298045;22;43152;-82
2023/10/26 01:21:47;;;;;;;;;;;19.80;82.40;;;;;;6279191;22;42935;-81
2023/10/26 01:24:13;;;;;;;;;;;20.00;82.40;;;;;;6278292;22;43939;-81
2023/10/26 01:26:40;;;;;;;;;;;20.00;84.20;;;;;;6277895;22;42953;-81
2023/10/26 01:29:06;;;;;;;;;;;19.90;84.20;;;;;;6279084;22;43327;-82
2023/10/26 01:36:42;;;;;;;;;;;20.00;82.90;;;;;;6247712;22;44069;-77
2023/10/26 01:44:46;;;;;;;;;;;20.00;82.90;;;;;;6266144;22;42977;-80
2023/10/26 01:47:13;;;;;;;;;;;19.90;82.10;;;;;;6276205;22;42876;-80
2023/10/26 02:17:07;;;;;;;;;;;20.10;82.20;;;;;;6293219;22;42728;-80
2023/10/26 02:19:32;;;;;;;;;;;19.90;83.90;;;;;;6288495;22;43585;-78
2023/10/26 02:21:58;;;;;;;;;;;19.90;84.00;;;;;;6284051;22;42986;-81
2023/10/26 02:24:23;;;;;;;;;;;19.90;84.30;;;;;;6282634;22;42994;-80
2023/10/26 02:26:49;;;;;;;;;;;19.90;84.30;;;;;;6279076;22;42893;-78
2023/10/26 02:29:14;;;;;;;;;;;19.90;84.30;;;;;;6277952;22;42871;-80
2023/10/26 02:31:40;;;;;;;;;;;19.90;84.30;;;;;;6251151;22;42949;-79
2023/10/26 02:34:05;;;;;;;;;;;19.90;83.80;;;;;;6250595;22;45355;-80
2023/10/26 02:36:31;;;;;;;;;;;19.90;84.20;;;;;;6277622;22;42994;-79
2023/10/26 03:57:33;;;;;;;;;;;20.10;82.30;;;;;;6267929;22;43435;-80
2023/10/26 04:00:30;;;;;;;;;;;20.10;82.20;;;;;;6277530;22;42772;-75
2023/10/26 04:02:56;;;;;;;;;;;19.90;82.20;;;;;;6277547;22;43010;-79
2023/10/26 04:05:21;;;;;;;;;;;20.10;84.00;;;;;;6250851;22;42990;-75
2023/10/26 04:07:47;;;;;;;;;;;20.20;84.00;;;;;;6277108;22;42757;-75
2023/10/26 04:10:12;;;;;;;;;;;19.90;84.50;;;;;;6277488;22;42724;-75
2023/10/26 04:12:38;;;;;;;;;;;19.90;84.50;;;;;;6278132;22;42973;-75
2023/10/26 04:15:04;;;;;;;;;;;20.00;84.60;;;;;;6276911;22;42880;-74
2023/10/26 04:17:29;;;;;;;;;;;19.90;84.30;;;;;;6278195;22;43446;-79
2023/10/26 04:19:56;;;;;;;;;;;20.00;84.20;;;;;;6277831;22;42915;-74
2023/10/26 04:22:22;;;;;;;;;;;20.10;84.30;;;;;;6277345;22;42952;-76
2023/10/26 04:24:47;;;;;;;;;;;20.00;84.50;;;;;;6249110;22;42921;-74
2023/10/26 04:27:13;;;;;;;;;;;20.00;84.10;;;;;;6277665;22;44236;-74
2023/10/26 04:29:38;;;;;;;;;;;20.20;84.70;;;;;;6277415;22;42747;-76
2023/10/26 04:32:04;;;;;;;;;;;20.20;84.70;;;;;;6276870;22;43511;-75
2023/10/26 04:34:30;;;;;;;;;;;20.00;84.10;;;;;;6250417;22;43205;-76
2023/10/26 04:36:55;;;;;;;;;;;19.90;86.60;;;;;;6250591;22;44806;-75
2023/10/26 04:39:22;;;;;;;;;;;20.10;84.50;;;;;;6249807;22;43645;-75
2023/10/26 04:41:47;;;;;;;;;;;20.10;85.30;;;;;;6278853;22;44353;-75
2023/10/26 04:44:13;;;;;;;;;;;19.80;84.50;;;;;;6296176;22;42325;-75
2023/10/26 04:46:39;;;;;;;;;;;20.10;85.40;;;;;;6290559;22;42935;-75
2023/10/26 04:49:04;;;;;;;;;;;20.00;84.70;;;;;;6284845;22;42692;-74
2023/10/26 04:51:31;;;;;;;;;;;19.90;85.40;;;;;;6278927;22;42746;-76
2023/10/26 04:53:57;;;;;;;;;;;19.90;85.30;;;;;;6276639;22;43008;-79
2023/10/26 04:56:23;;;;;;;;;;;19.90;85.70;;;;;;6277246;22;43563;-75
2023/10/26 04:58:48;;;;;;;;;;;19.90;85.60;;;;;;6279608;22;42892;-75
2023/10/26 05:01:14;;;;;;;;;;;19.90;85.40;;;;;;6275416;22;44094;-75
2023/10/26 05:03:39;;;;;;;;;;;19.90;85.50;;;;;;6277203;22;42885;-76
2023/10/26 05:06:05;;;;;;;;;;;19.90;86.20;;;;;;6276724;22;42888;-75
2023/10/26 05:08:30;;;;;;;;;;;20.80;86.30;;;;;;6275167;22;42907;-77
2023/10/26 05:10:56;;;;;;;;;;;20.00;86.20;;;;;;6274881;22;43636;-75
2023/10/26 05:13:22;;;;;;;;;;;19.80;85.60;;;;;;6275185;22;42837;-76
2023/10/26 05:15:48;;;;;;;;;;;20.10;86.20;;;;;;6274905;22;43701;-77
2023/10/26 05:18:14;;;;;;;;;;;20.10;86.50;;;;;;6274870;22;43068;-77
2023/10/26 05:20:39;;;;;;;;;;;20.10;86.30;;;;;;6275023;22;43518;-75
2023/10/26 05:23:06;;;;;;;;;;;20.00;87.00;;;;;;6276017;22;42898;-74
2023/10/26 05:25:32;;;;;;;;;;;20.20;86.90;;;;;;6272787;22;43451;-74
2023/10/26 05:27:59;;;;;;;;;;;20.20;86.40;;;;;;6275547;22;43312;-75
2023/10/26 05:30:25;;;;;;;;;;;20.00;86.60;;;;;;6276991;22;42935;-74
2023/10/26 05:32:50;;;;;;;;;;;20.20;86.80;;;;;;6276717;22;42779;-77
2023/10/26 05:35:18;;;;;;;;;;;20.20;86.10;;;;;;6275372;22;42939;-81
2023/10/26 05:37:44;;;;;;;;;;;20.10;85.90;;;;;;6277254;22;42943;-74
2023/10/26 05:40:09;;;;;;;;;;;20.20;86.20;;;;;;6276694;22;42893;-74
2023/10/26 05:42:35;;;;;;;;;;;20.10;86.10;;;;;;6277211;22;42982;-73
2023/10/26 05:45:01;;;;;;;;;;;20.00;87.00;;;;;;6276712;22;43381;-75
2023/10/26 05:47:26;;;;;;;;;;;20.00;87.40;;;;;;6277483;22;42860;-74
2023/10/26 05:49:52;;;;;;;;;;;20.00;87.70;;;;;;6277413;22;42837;-74
2023/10/26 05:52:17;;;;;;;;;;;19.90;86.70;;;;;;6277266;22;42789;-75
2023/10/26 05:54:43;;;;;;;;;;;20.20;86.10;;;;;;6277723;22;42944;-74
2023/10/26 05:57:08;;;;;;;;;;;19.90;86.80;;;;;;6276921;22;42682;-75
2023/10/26 05:59:34;;;;;;;;;;;19.90;86.40;;;;;;6278030;22;42919;-74
2023/10/26 06:01:59;;;;;;;;;;;20.00;87.00;;;;;;6277028;22;42872;-76
2023/10/26 06:04:26;;;;;;;;;;;20.30;86.50;;;;;;6277658;22;42912;-76
2023/10/26 06:06:51;;;;;;;;;;;20.10;86.70;;;;;;6276763;22;42809;-75
2023/10/26 06:09:17;;;;;;;;;;;20.00;85.90;;;;;;6276221;22;43326;-75
2023/10/26 06:11:42;;;;;;;;;;;20.00;86.10;;;;;;6279088;22;42912;-78
2023/10/26 06:14:08;;;;;;;;;;;20.00;86.10;;;;;;6279219;22;42835;-76
2023/10/26 06:16:34;;;;;;;;;;;20.10;86.20;;;;;;6279173;22;43031;-75
2023/10/26 06:18:59;;;;;;;;;;;20.00;86.20;;;;;;6250905;22;42997;-75
2023/10/26 06:21:25;;;;;;;;;;;20.10;86.20;;;;;;6252642;22;42935;-74
2023/10/26 06:23:50;;;;;;;;;;;20.00;86.60;;;;;;6276169;22;43135;-76
2023/10/26 06:26:16;;;;;;;;;;;19.90;85.90;;;;;;6275560;22;43300;-75
2023/10/26 06:28:41;;;;;;;;;;;20.00;86.40;;;;;;6277094;22;43453;-76
2023/10/26 06:31:09;;;;;;;;;;;20.00;86.80;;;;;;6276758;22;42801;-78
2023/10/26 06:33:38;;;;;;;;;;;20.00;86.50;;;;;;6278254;22;42942;-78
2023/10/26 06:36:03;;;;;;;;;;;20.00;84.10;;;;;;6278914;22;42886;-78
2023/10/26 06:38:29;;;;;;;;;;;20.00;86.10;;;;;;6277957;22;43614;-78
2023/10/26 06:40:55;;;;;;;;;;;19.90;86.20;;;;;;6276117;22;42894;-77
2023/10/26 06:43:22;;;;;;;;;;;20.20;86.30;;;;;;6276708;22;42883;-78
2023/10/26 06:45:48;;;;;;;;;;;20.00;86.30;;;;;;6276945;22;42987;-77
2023/10/26 06:48:13;;;;;;;;;;;19.90;86.30;;;;;;6276819;22;43325;-75
2023/10/26 06:50:39;;;;;;;;;;;19.90;86.30;;;;;;6274057;22;42907;-75
2023/10/26 06:53:04;;;;;;;;;;;19.90;85.90;;;;;;6277017;22;43779;-74
2023/10/26 06:55:33;;;;;;;;;;;20.10;86.10;;;;;;6279157;22;42884;-79
2023/10/26 06:57:59;;;;;;;;;;;19.90;83.90;;;;;;6279521;22;43479;-79
2023/10/26 07:00:25;;;;;;;;;;;20.10;86.00;;;;;;6278947;22;42812;-76
2023/10/26 07:02:50;;;;;;;;;;;20.10;86.00;;;;;;6277900;22;43433;-80
2023/10/26 07:05:16;;;;;;;;;;;19.90;86.00;;;;;;6279244;22;42750;-79
2023/10/26 07:07:42;;;;;;;;;;;19.80;85.80;;;;;;6277901;22;43448;-79
2023/10/26 07:10:14;;;;;;;;;;;19.90;85.60;;;;;;6278671;22;42872;-78
2023/10/26 07:12:40;;;;;;;;;;;19.80;85.40;;;;;;6291043;22;42915;-78
2023/10/26 07:15:06;;;;;;;;;;;19.90;86.00;;;;;;6294418;22;42831;-78
2023/10/26 07:17:34;;;;;;;;;;;19.90;86.30;;;;;;6284973;22;42807;-78
2023/10/26 07:20:03;;;;;;;;;;;19.90;85.70;;;;;;6279870;22;42946;-78
2023/10/26 07:22:28;;;;;;;;;;;19.90;86.30;;;;;;6278180;22;42875;-77
2023/10/26 07:24:54;;;;;;;;;;;19.90;86.10;;;;;;6279540;22;42893;-79
2023/10/26 07:27:19;;;;;;;;;;;19.80;86.10;;;;;;6279390;22;42926;-79
2023/10/26 07:29:46;;;;;;;;;;;19.80;85.70;;;;;;6279779;22;42872;-76
2023/10/26 07:32:12;;;;;;;;;;;19.90;85.20;;;;;;6279544;22;43395;-79
2023/10/26 07:34:37;;;;;;;;;;;19.90;85.90;;;;;;6278494;22;42844;-78
2023/10/26 07:37:03;;;;;;;;;;;19.90;85.90;;;;;;6279191;22;42936;-77
2023/10/26 07:39:28;;;;;;;;;;;19.80;85.60;;;;;;6279278;22;42887;-77
2023/10/26 07:41:54;;;;;;;;;;;19.90;85.60;;;;;;6278885;22;43605;-78
2023/10/26 07:44:19;;;;;;;;;;;19.80;85.40;;;;;;6279603;22;42732;-78
2023/10/26 07:46:45;;;;;;;;;;;19.90;85.10;;;;;;6280521;22;42989;-76
2023/10/26 07:49:10;;;;;;;;;;;19.90;85.60;;;;;;6278186;22;42974;-79
2023/10/26 07:51:36;;;;;;;;;;;20.00;85.60;;;;;;6278450;22;43275;-75
2023/10/26 07:54:01;;;;;;;;;;;19.90;85.50;;;;;;6278517;22;42754;-77
2023/10/26 07:56:26;;;;;;;;;;;19.80;85.50;;;;;;6278669;22;43346;-75
2023/10/26 07:58:52;;;;;;;;;;;19.90;85.60;;;;;;6280209;22;42906;-76
2023/10/26 08:01:17;;;;;;;;;;;19.80;85.80;;;;;;6277480;22;42791;-76
2023/10/26 08:03:44;;;;;;;;;;;20.00;85.60;;;;;;6278004;22;42942;-77
2023/10/26 08:06:10;;;;;;;;;;;19.80;85.30;;;;;;6277617;22;42915;-77
2023/10/26 08:08:35;;;;;;;;;;;19.80;85.60;;;;;;6278744;22;43005;-78
2023/10/26 08:11:14;;;;;;;;;;;19.80;85.00;;;;;;6277567;22;42958;-78
2023/10/26 08:13:40;;;;;;;;;;;19.80;83.70;;;;;;6277871;22;42796;-77
2023/10/26 08:16:05;;;;;;;;;;;20.00;85.90;;;;;;6276427;22;43653;-76
2023/10/26 08:18:31;;;;;;;;;;;19.70;85.70;;;;;;6277338;22;42859;-76
2023/10/26 08:20:56;;;;;;;;;;;20.00;85.90;;;;;;6276690;22;42817;-76
2023/10/26 08:23:22;;;;;;;;;;;19.90;85.70;;;;;;6277611;22;43059;-76
2023/10/26 08:25:48;;;;;;;;;;;19.90;85.30;;;;;;6277196;22;42855;-76
2023/10/26 08:28:14;;;;;;;;;;;19.90;85.80;;;;;;6276619;22;42823;-76
2023/10/26 08:30:39;;;;;;;;;;;19.70;85.40;;;;;;6277880;22;43498;-77
2023/10/26 08:33:05;;;;;;;;;;;19.80;85.40;;;;;;6278475;22;42879;-76
2023/10/26 08:35:30;;;;;;;;;;;19.80;84.90;;;;;;6277267;22;43464;-78
2023/10/26 08:37:56;;;;;;;;;;;20.00;84.90;;;;;;6276952;22;42915;-75
2023/10/26 08:40:22;;;;;;;;;;;19.90;85.40;;;;;;6276092;22;43724;-76
2023/10/26 08:42:47;;;;;;;;;;;20.00;85.30;;;;;;6277322;22;42931;-76
2023/10/26 08:45:27;;;;;;;;;;;20.00;84.80;;;;;;6276868;22;44061;-76
2023/10/26 08:47:53;;;;;;;;;;;20.10;83.30;;;;;;6276386;22;43066;-76
2023/10/26 08:50:19;;;;;;;;;;;19.90;84.90;;;;;;6277214;22;43691;-77
2023/10/26 08:52:45;;;;;;;;;;;19.90;85.00;;;;;;6278370;22;43078;-78
2023/10/26 08:55:11;;;;;;;;;;;20.00;85.00;;;;;;6278130;22;42868;-77
2023/10/26 08:57:54;;;;;;;;;;;20.10;84.50;;;;;;6275941;22;42987;-77
2023/10/26 09:00:20;;;;;;;;;;;20.00;83.70;;;;;;6277826;22;43505;-78
2023/10/26 09:02:47;;;;;;;;;;;20.20;84.80;;;;;;6275839;22;42904;-76
2023/10/26 09:05:14;;;;;;;;;;;19.90;84.60;;;;;;6276063;22;43611;-76
2023/10/26 09:07:40;;;;;;;;;;;19.90;84.60;;;;;;6276870;22;42978;-76
2023/10/26 09:10:06;;;;;;;;;;;20.00;84.30;;;;;;6276047;22;43721;-75
2023/10/26 09:12:31;;;;;;;;;;;20.00;84.60;;;;;;6275825;22;42993;-76
2023/10/26 09:14:58;;;;;;;;;;;19.90;84.90;;;;;;6276780;22;42890;-75
2023/10/26 09:17:24;;;;;;;;;;;19.90;85.00;;;;;;6276742;22;42879;-76
2023/10/26 09:19:50;;;;;;;;;;;19.90;85.00;;;;;;6249239;22;44199;-76
2023/10/26 09:22:15;;;;;;;;;;;20.20;85.00;;;;;;6276581;22;42856;-75
2023/10/26 09:24:41;;;;;;;;;;;19.90;84.90;;;;;;6277150;22;42931;-76
2023/10/26 09:27:07;;;;;;;;;;;19.90;84.90;;;;;;6276679;22;42903;-76
2023/10/26 09:29:36;;;;;;;;;;;20.00;85.00;;;;;;6276679;22;42827;-75
2023/10/26 09:32:02;;;;;;;;;;;19.80;83.10;;;;;;6277320;22;42800;-75
2023/10/26 09:34:28;;;;;;;;;;;20.00;85.10;;;;;;6276985;22;43243;-76
2023/10/26 09:36:59;;;;;;;;;;;20.10;85.20;;;;;;6276757;22;42923;-76
2023/10/26 09:39:27;;;;;;;;;;;19.80;83.20;;;;;;6276740;22;42800;-75
2023/10/26 09:41:53;;;;;;;;;;;19.90;84.60;;;;;;6276677;22;43052;-75
2023/10/26 09:44:19;;;;;;;;;;;20.00;85.30;;;;;;6278912;22;42993;-75
2023/10/26 09:46:45;;;;;;;;;;;20.10;85.40;;;;;;6278324;22;42868;-77
2023/10/26 09:49:10;;;;;;;;;;;19.90;84.70;;;;;;6277963;22;43769;-76
2023/10/26 09:51:36;;;;;;;;;;;20.00;85.30;;;;;;6276370;22;42838;-75
2023/10/26 09:54:02;;;;;;;;;;;20.00;85.40;;;;;;6276171;22;43461;-75
2023/10/26 09:56:29;;;;;;;;;;;19.90;85.30;;;;;;6276573;22;42919;-76
2023/10/26 09:58:55;;;;;;;;;;;20.00;85.40;;;;;;6277262;22;43316;-76
2023/10/26 10:01:33;;;;;;;;;;;19.90;84.80;;;;;;6277466;22;42998;-75
2023/10/26 10:03:59;;;;;;;;;;;20.00;83.60;;;;;;6277768;22;43313;-76
2023/10/26 10:06:43;;;;;;;;;;;20.00;85.50;;;;;;6277509;22;42895;-76
2023/10/26 10:09:10;;;;;;;;;;;19.90;83.50;;;;;;6277046;22;42836;-75
2023/10/26 10:11:36;;;;;;;;;;;19.90;85.40;;;;;;6249631;22;43087;-76
2023/10/26 10:14:02;;;;;;;;;;;19.90;85.30;;;;;;6276406;22;43448;-75
2023/10/26 10:16:33;;;;;;;;;;;19.80;85.30;;;;;;6277855;22;42840;-76
2023/10/26 10:19:15;;;;;;;;;;;19.90;83.50;;;;;;6276808;22;42983;-79
2023/10/26 10:21:40;;;;;;;;;;;20.20;83.70;;;;;;6275929;22;42767;-76
2023/10/26 10:24:06;;;;;;;;;;;20.00;85.60;;;;;;6276895;22;42702;-75
2023/10/26 10:26:51;;;;;;;;;;;20.00;85.40;;;;;;6276760;22;42859;-74
2023/10/26 10:29:19;;;;;;;;;;;19.80;85.10;;;;;;6276313;22;42777;-74
2023/10/26 10:31:45;;;;;;;;;;;19.90;85.30;;;;;;6275078;22;42887;-74
2023/10/26 10:34:12;;;;;;;;;;;20.00;85.20;;;;;;6275314;22;42839;-74
2023/10/26 10:36:56;;;;;;;;;;;19.90;85.10;;;;;;6276279;22;42895;-74
2023/10/26 10:39:22;;;;;;;;;;;19.90;83.20;;;;;;6276771;22;42879;-75
2023/10/26 10:41:48;;;;;;;;;;;19.90;85.30;;;;;;6276736;22;42889;-73
2023/10/26 10:44:14;;;;;;;;;;;20.40;85.40;;;;;;6276003;22;42916;-75
2023/10/26 10:46:39;;;;;;;;;;;19.90;85.20;;;;;;6276020;22;42949;-74
2023/10/26 10:49:08;;;;;;;;;;;19.90;84.70;;;;;;6275823;22;43334;-74
2023/10/26 10:51:37;;;;;;;;;;;20.00;83.20;;;;;;6276472;22;42924;-74
2023/10/26 10:54:07;;;;;;;;;;;19.90;83.00;;;;;;6276582;22;43360;-74
2023/10/26 10:56:37;;;;;;;;;;;19.90;84.50;;;;;;6275254;22;43006;-74
2023/10/26 10:59:22;;;;;;;;;;;20.00;82.90;;;;;;6274930;22;42833;-75
2023/10/26 11:01:51;;;;;;;;;;;20.00;83.10;;;;;;6276804;22;42888;-74
2023/10/26 11:04:17;;;;;;;;;;;19.90;85.00;;;;;;6274136;22;43568;-74
2023/10/26 11:06:46;;;;;;;;;;;19.90;84.90;;;;;;6277852;22;42946;-74
2023/10/26 11:09:20;;;;;;;;;;;19.90;83.20;;;;;;6277820;22;43227;-75
2023/10/26 11:11:46;;;;;;;;;;;20.00;83.20;;;;;;6278299;22;43111;-74
2023/10/26 11:14:12;;;;;;;;;;;20.10;85.00;;;;;;6278244;22;43396;-74
2023/10/26 11:16:38;;;;;;;;;;;20.00;85.50;;;;;;6277767;22;42935;-74
2023/10/26 11:19:04;;;;;;;;;;;20.00;84.90;;;;;;6277503;22;43825;-75
2023/10/26 11:21:29;;;;;;;;;;;20.10;85.00;;;;;;6276856;22;42954;-74
2023/10/26 11:23:55;;;;;;;;;;;20.00;85.00;;;;;;6276253;22;42897;-75
2023/10/26 11:26:20;;;;;;;;;;;19.90;85.10;;;;;;6277221;22;42930;-74
2023/10/26 11:28:46;;;;;;;;;;;20.00;85.10;;;;;;6278245;22;42720;-74
2023/10/26 11:31:11;;;;;;;;;;;19.90;85.30;;;;;;6279781;22;42899;-75
2023/10/26 11:33:39;;;;;;;;;;;19.90;85.10;;;;;;6278887;22;43815;-74
2023/10/26 11:36:12;;;;;;;;;;;20.00;85.30;;;;;;6279373;22;42963;-75
2023/10/26 11:38:47;;;;;;;;;;;20.00;83.40;;;;;;6277335;22;42902;-79
2023/10/26 11:41:22;;;;;;;;;;;20.10;83.50;;;;;;6277688;22;42843;-77
2023/10/26 11:43:48;;;;;;;;;;;19.90;85.30;;;;;;6278130;22;43530;-78
2023/10/26 11:46:13;;;;;;;;;;;19.90;85.40;;;;;;6277510;22;42837;-78
2023/10/26 11:48:41;;;;;;;;;;;19.80;85.30;;;;;;6277834;22;43497;-77
2023/10/26 11:51:07;;;;;;;;;;;20.00;84.70;;;;;;6277017;22;42781;-78
2023/10/26 11:53:33;;;;;;;;;;;19.90;84.70;;;;;;6277586;22;43005;-78
2023/10/26 11:55:59;;;;;;;;;;;20.00;85.30;;;;;;6277813;22;42982;-76
2023/10/26 11:58:24;;;;;;;;;;;20.00;85.30;;;;;;6293302;22;43792;-78
2023/10/26 12:00:50;;;;;;;;;;;20.10;85.20;;;;;;6309440;22;42922;-78
2023/10/26 12:03:15;;;;;;;;;;;20.00;85.10;;;;;;6308034;22;43333;-77
2023/10/26 12:05:41;;;;;;;;;;;19.90;85.10;;;;;;6313534;22;42885;-77
2023/10/26 12:08:06;;;;;;;;;;;19.90;85.30;;;;;;6314563;22;43065;-78
2023/10/26 12:10:32;;;;;;;;;;;19.80;85.10;;;;;;6317311;22;42843;-78
2023/10/26 12:12:59;;;;;;;;;;;20.00;84.80;;;;;;6310778;22;42920;-77
2023/10/26 12:15:25;;;;;;;;;;;19.90;85.10;;;;;;6305993;22;42979;-77
2023/10/26 12:17:50;;;;;;;;;;;19.90;84.80;;;;;;6306479;22;42945;-77
2023/10/26 12:20:16;;;;;;;;;;;20.00;84.80;;;;;;6308083;22;42964;-77
2023/10/26 12:22:42;;;;;;;;;;;19.90;84.70;;;;;;6309044;22;44268;-78
2023/10/26 12:25:08;;;;;;;;;;;19.90;84.80;;;;;;6308433;22;42811;-77
2023/10/26 12:27:34;;;;;;;;;;;19.90;84.70;;;;;;6308617;22;42822;-77
2023/10/26 12:30:00;;;;;;;;;;;19.90;84.90;;;;;;6309786;22;42877;-77
2023/10/26 12:32:25;;;;;;;;;;;19.90;84.80;;;;;;6308768;22;43872;-77
2023/10/26 12:34:51;;;;;;;;;;;19.80;85.00;;;;;;6308890;22;42807;-77
2023/10/26 12:37:16;;;;;;;;;;;20.00;84.90;;;;;;6308508;22;42948;-77
2023/10/26 12:39:42;;;;;;;;;;;20.00;84.90;;;;;;6309332;22;42727;-78
2023/10/26 12:42:07;;;;;;;;;;;19.30;84.50;;;;;;6308920;22;43613;-76
2023/10/26 12:44:33;;;;;;;;;;;20.00;84.60;;;;;;6309018;22;42841;-77
2023/10/26 12:46:58;;;;;;;;;;;19.90;85.00;;;;;;6307838;22;42805;-76
2023/10/26 12:49:24;;;;;;;;;;;19.90;84.40;;;;;;6308506;22;43097;-77
2023/10/26 12:51:50;;;;;;;;;;;19.80;84.90;;;;;;6307647;22;42993;-77
2023/10/26 12:54:16;;;;;;;;;;;20.00;85.10;;;;;;6308334;22;42988;-77
2023/10/26 12:56:42;;;;;;;;;;;19.80;84.80;;;;;;6307767;22;42870;-78
2023/10/26 12:59:07;;;;;;;;;;;19.90;85.00;;;;;;6278664;22;42941;-77
2023/10/26 13:01:33;;;;;;;;;;;19.90;84.50;;;;;;6276737;22;43137;-77
2023/10/26 13:03:58;;;;;;;;;;;20.10;85.00;;;;;;6276508;22;42973;-78
2023/10/26 13:06:24;;;;;;;;;;;19.90;85.10;;;;;;6277453;22;42916;-78
2023/10/26 13:08:49;;;;;;;;;;;19.80;84.50;;;;;;6277242;22;42782;-77
2023/10/26 13:11:15;;;;;;;;;;;20.00;85.20;;;;;;6277003;22;43542;-78
2023/10/26 13:13:40;;;;;;;;;;;20.00;84.70;;;;;;6278028;22;42914;-77
2023/10/26 13:16:10;;;;;;;;;;;20.00;85.10;;;;;;6277444;22;43782;-78
2023/10/26 13:18:39;;;;;;;;;;;19.80;85.00;;;;;;6277401;22;42951;-78
2023/10/26 13:21:05;;;;;;;;;;;19.90;83.40;;;;;;6276786;22;42929;-79
2023/10/26 13:23:31;;;;;;;;;;;20.20;85.40;;;;;;6291323;22;43099;-78
2023/10/26 13:25:56;;;;;;;;;;;19.90;82.90;;;;;;6308495;22;42865;-79
2023/10/26 13:28:22;;;;;;;;;;;19.90;82.90;;;;;;6307179;22;43043;-77
2023/10/26 13:30:49;;;;;;;;;;;19.90;83.50;;;;;;6308702;22;42767;-77
2023/10/26 13:33:14;;;;;;;;;;;20.00;83.40;;;;;;6308140;22;42929;-78
2023/10/26 13:35:40;;;;;;;;;;;19.90;83.30;;;;;;6308698;22;42795;-78
2023/10/26 13:38:12;;;;;;;;;;;20.00;83.40;;;;;;6308728;22;42680;-78
2023/10/26 13:40:38;;;;;;;;;;;19.80;83.20;;;;;;6287919;22;42986;-78
2023/10/26 13:43:03;;;;;;;;;;;20.00;82.80;;;;;;6278401;22;42924;-77
2023/10/26 13:45:29;;;;;;;;;;;20.00;82.80;;;;;;6276560;22;42991;-76
2023/10/26 13:47:54;;;;;;;;;;;19.90;83.20;;;;;;6277981;22;42875;-79
2023/10/26 13:50:20;;;;;;;;;;;19.90;83.20;;;;;;6276319;22;42895;-76
2023/10/26 13:52:45;;;;;;;;;;;20.00;82.70;;;;;;6277314;22;42907;-77
2023/10/26 13:55:11;;;;;;;;;;;19.90;83.30;;;;;;6276390;22;43660;-78
2023/10/26 13:57:36;;;;;;;;;;;20.00;83.10;;;;;;6275859;22;42978;-77
2023/10/26 14:00:06;;;;;;;;;;;19.90;83.20;;;;;;6276320;22;42911;-77
2023/10/26 14:02:32;;;;;;;;;;;20.00;82.90;;;;;;6276422;22;42839;-77
2023/10/26 14:04:57;;;;;;;;;;;20.00;83.00;;;;;;6276557;22;43527;-77
2023/10/26 14:07:23;;;;;;;;;;;19.90;83.10;;;;;;6276377;22;42824;-77
2023/10/26 14:09:48;;;;;;;;;;;20.00;82.60;;;;;;6277569;22;43914;-76
2023/10/26 14:12:14;;;;;;;;;;;19.90;83.00;;;;;;6277501;22;42949;-77
2023/10/26 14:14:39;;;;;;;;;;;19.90;83.10;;;;;;6276693;22;42747;-77
2023/10/26 14:17:05;;;;;;;;;;;20.00;82.80;;;;;;6277123;22;42903;-77
2023/10/26 14:19:30;;;;;;;;;;;19.90;83.20;;;;;;6277321;22;43438;-76
2023/10/26 14:21:56;;;;;;;;;;;19.80;83.00;;;;;;6276508;22;42835;-77
2023/10/26 14:24:21;;;;;;;;;;;19.70;83.10;;;;;;6276137;22;42910;-77
2023/10/26 14:26:47;;;;;;;;;;;19.90;83.10;;;;;;6276860;22;42916;-77
2023/10/26 14:29:13;;;;;;;;;;;19.80;82.60;;;;;;6277468;22;43901;-77
2023/10/26 14:31:38;;;;;;;;;;;20.00;83.20;;;;;;6277051;22;42808;-76
2023/10/26 14:34:04;;;;;;;;;;;19.90;83.20;;;;;;6285270;22;42856;-77
2023/10/26 14:36:29;;;;;;;;;;;19.90;83.20;;;;;;6284804;22;42945;-77
2023/10/26 14:38:55;;;;;;;;;;;19.80;83.10;;;;;;6255937;22;42941;-76
2023/10/26 14:41:20;;;;;;;;;;;19.90;83.10;;;;;;6278712;22;43010;-77
2023/10/26 14:43:46;;;;;;;;;;;19.90;83.10;;;;;;6252292;22;44195;-77
2023/10/26 14:46:12;;;;;;;;;;;19.70;83.00;;;;;;6278293;22;43252;-77
2023/10/26 14:48:37;;;;;;;;;;;20.00;83.20;;;;;;6278422;22;43412;-77
2023/10/26 14:51:06;;;;;;;;;;;20.00;83.20;;;;;;6277754;22;42835;-77
2023/10/26 14:53:33;;;;;;;;;;;20.00;83.20;;;;;;6278002;22;43384;-76
2023/10/26 14:56:02;;;;;;;;;;;19.90;83.10;;;;;;6278486;22;42972;-77
2023/10/26 14:58:28;;;;;;;;;;;20.00;83.20;;;;;;6277764;22;42925;-77
2023/10/26 15:00:53;;;;;;;;;;;19.90;83.20;;;;;;6251604;22;42749;-77
2023/10/26 15:03:19;;;;;;;;;;;20.00;83.20;;;;;;6277084;22;42903;-76
2023/10/26 15:05:44;;;;;;;;;;;20.00;83.10;;;;;;6277576;22;42987;-76
2023/10/26 15:08:10;;;;;;;;;;;20.00;82.50;;;;;;6278432;22;42925;-77
2023/10/26 15:10:37;;;;;;;;;;;19.90;83.00;;;;;;6250713;22;43020;-76
2023/10/26 15:13:03;;;;;;;;;;;20.00;82.50;;;;;;6278827;22;44614;-78
2023/10/26 15:15:29;;;;;;;;;;;20.00;83.00;;;;;;6250496;22;42898;-77
2023/10/26 15:17:54;;;;;;;;;;;19.90;82.40;;;;;;6277285;22;43367;-76
2023/10/26 15:20:20;;;;;;;;;;;20.00;82.40;;;;;;6251036;22;43003;-77
2023/10/26 15:22:45;;;;;;;;;;;20.00;82.60;;;;;;6277044;22;43703;-77
2023/10/26 15:25:11;;;;;;;;;;;20.00;83.00;;;;;;6277592;22;42945;-77
2023/10/26 15:27:36;;;;;;;;;;;19.90;82.40;;;;;;6251046;22;44466;-77
2023/10/26 15:30:02;;;;;;;;;;;20.00;82.90;;;;;;6278602;22;42650;-77
2023/10/26 15:32:29;;;;;;;;;;;20.10;82.50;;;;;;6278016;22;42864;-77
2023/10/26 15:34:54;;;;;;;;;;;19.90;82.90;;;;;;6278834;22;42762;-76
2023/10/26 15:37:21;;;;;;;;;;;19.90;82.90;;;;;;6278207;22;43283;-79
2023/10/26 15:39:48;;;;;;;;;;;20.00;82.90;;;;;;6277832;22;42974;-78
2023/10/26 15:42:14;;;;;;;;;;;20.00;82.30;;;;;;6279694;22;44274;-77
2023/10/26 15:44:40;;;;;;;;;;;20.00;82.30;;;;;;6251931;22;42714;-78
2023/10/26 15:47:06;;;;;;;;;;;20.00;82.20;;;;;;6277781;22;43723;-79
2023/10/26 15:49:31;;;;;;;;;;;20.00;82.20;;;;;;6276746;22;42887;-78
2023/10/26 15:51:57;;;;;;;;;;;19.90;82.90;;;;;;6275983;22;42894;-78
2023/10/26 15:54:22;;;;;;;;;;;20.00;82.90;;;;;;6277528;22;42688;-78
2023/10/26 15:56:48;;;;;;;;;;;19.90;82.90;;;;;;6277337;22;43546;-78
2023/10/26 15:59:16;;;;;;;;;;;19.70;82.80;;;;;;6277365;22;42750;-76
2023/10/26 16:01:42;;;;;;;;;;;20.00;81.50;;;;;;6276560;22;42918;-76
2023/10/26 16:04:08;;;;;;;;;;;20.00;82.20;;;;;;6275481;22;43067;-75
2023/10/26 16:06:33;;;;;;;;;;;20.00;82.80;;;;;;6277279;22;42856;-75
2023/10/26 16:08:59;;;;;;;;;;;20.00;82.90;;;;;;6275680;22;43052;-77
2023/10/26 16:11:24;;;;;;;;;;;20.00;82.30;;;;;;6249876;22;43156;-76
2023/10/26 16:13:50;;;;;;;;;;;20.20;82.80;;;;;;6278015;22;42831;-77
2023/10/26 16:16:15;;;;;;;;;;;20.10;82.70;;;;;;6278634;22;43399;-77
2023/10/26 16:18:47;;;;;;;;;;;19.90;82.60;;;;;;6277488;22;42822;-78
2023/10/26 16:21:13;;;;;;;;;;;19.90;81.20;;;;;;6277953;22;43862;-78
2023/10/26 16:23:39;;;;;;;;;;;19.90;82.90;;;;;;6277031;22;42949;-77
2023/10/26 16:26:04;;;;;;;;;;;20.10;82.30;;;;;;6278392;22;43640;-77
2023/10/26 16:28:30;;;;;;;;;;;20.10;82.70;;;;;;6280037;22;42820;-77
2023/10/26 16:30:55;;;;;;;;;;;20.10;82.70;;;;;;6280221;22;42920;-75
2023/10/26 16:33:21;;;;;;;;;;;19.90;82.50;;;;;;6279824;22;42928;-77
2023/10/26 16:35:46;;;;;;;;;;;20.10;82.60;;;;;;6277593;22;43150;-75
2023/10/26 16:38:12;;;;;;;;;;;20.10;82.50;;;;;;6281057;22;42833;-77
2023/10/26 16:40:38;;;;;;;;;;;20.00;82.00;;;;;;6280452;22;43357;-75
2023/10/26 16:43:04;;;;;;;;;;;20.10;82.00;;;;;;6279229;22;43143;-76
2023/10/26 16:45:30;;;;;;;;;;;20.00;82.40;;;;;;6281210;22;43521;-76
2023/10/26 16:47:56;;;;;;;;;;;20.00;82.50;;;;;;6281629;22;42717;-75
2023/10/26 16:50:25;;;;;;;;;;;20.10;82.50;;;;;;6280309;22;42700;-78
2023/10/26 16:52:50;;;;;;;;;;;20.00;80.10;;;;;;6279646;22;42974;-77